Port Orford - 15 Nm West Of Port Orford, Or (46015) Wave Buoy

10:50am - Sat 10th Oct 2015 All times are PDT. -7 hours from GMT.

  • Sig Wave height 10.5ft
  • Swell Direction
  • Peak Period 12s
  • Average Period 8s
  • Wind
    27mph, 31mph gusts
  • Sea Temp 58°f
  • Air Temp 60°f
  • Sea Pressure 1012.4mb
  • Port Orford - 15 Nm West Of Port Orford, Or
  • Port Orford - 15 Nm West Of Port Orford, Or

More Historic Weather Station data

Upgrade to MSW Pro to gain access to the past 30 days of data for over 8000 Wavebouys and Weather Stations around the globe.

Join Pro

Comparision Forecast

View Surf forecast
Sat 10/10 10:50am 10.5ft 12s 8s 27 31 mph 1012.4mb 58f 60f
9:50am 11ft 14s 8s 25 29 mph 1012.5mb 58f 60f
8:50am 11ft 13s 8s 20 25 mph 1012.5mb 58f 60f
7:50am 11ft 13s 9s 20 22 mph 1012.4mb 58f 60f
6:50am 11ft 14s 9s 18 22 mph 1012.9mb 58f 59f
5:50am 11.5ft 13s 9s 18 20 mph 1012.6mb 58f 59f
4:50am 11ft 14s 9s 18 20 mph 1012.9mb 58f 59f
3:50am 11.5ft 13s 10s 16 18 mph 1013.3mb 58f 59f
1:50am 11ft 11s 10s 13 16 mph 1014.1mb 58f 59f
12:50am 11ft 11s 9s 13 16 mph 1014.5mb 57f 59f
Fri 10/09 11:50pm 11ft 12s 9s 13 16 mph 1015.2mb 57f 59f
10:50pm 10ft 11s 9s 13 16 mph 1015.7mb 57f 59f
9:50pm 10ft 13s 9s 13 18 mph 1016mb 57f 59f
8:50pm 9.5ft 11s 8s 13 16 mph 1016.1mb 56f 59f
7:50pm 9.5ft 10s 8s 13 18 mph 1016mb 56f 59f
6:50pm 9.5ft 11s 7s 18 20 mph 1016.1mb 56f 59f
5:50pm 9.5ft 10s 7s 20 22 mph 1016.3mb 56f 59f
4:50pm 10ft 10s 7s 20 22 mph 1016.5mb 56f 59f
3:50pm 10ft 10s 7s 20 22 mph 1016.9mb 57f 59f
2:50pm 10ft 9s 7s 20 25 mph 1016.7mb 57f 58f
1:50pm 10ft 8s 7s 22 27 mph 1016.9mb 57f 58f
12:50pm 8ft 9s 6s 25 27 mph 1016.8mb 57f 58f
11:50am 8ft 8s 6s 25 29 mph 1016.4mb 57f 58f
10:50am 7.5ft 8s 6s 25 29 mph 1016mb 57f 58f
9:50am 7ft 7s 6s 25 31 mph 1015.7mb 58f 58f
8:50am 7ft 7s 5s 25 29 mph 1015.3mb 57f 58f
7:50am 6.5ft 6s 5s 22 25 mph 1014.9mb 57f 59f
6:50am 7ft 5s 5s 22 27 mph 1014.8mb 57f 58f
5:50am 6.5ft 5s 5s 25 29 mph 1014.4mb 57f 58f
4:50am 6ft 5s 5s 27 36 mph 1014mb 57f 58f
3:50am 5.5ft 15s 5s 27 34 mph 1014.4mb 57f 58f
2:50am 5ft 15s 5s 25 31 mph 1015.1mb 57f 59f
1:50am 4.5ft 15s 6s 25 29 mph 1014.8mb 57f 59f
12:50am 4.5ft 14s 6s 20 27 mph 1014.9mb 57f 59f
Thu 10/08 11:50pm 4ft 15s 7s 9 11 mph 1016mb 57f 58f
10:50pm 4ft 15s 8s 2 4 mph 1016.3mb 57f 56f
9:50pm 4ft 15s 7s  -  2 mph 1016.1mb 57f 58f
8:50pm 3.5ft 15s 7s 4
1015.5mb 57f 57f
7:50pm 3.5ft 15s 7s 7
1015.7mb 57f 56f
6:50pm 3.5ft 11s 7s 9 11 mph 1015.9mb 56f 56f
5:50pm 3.5ft 15s 7s 9 11 mph 1017mb 56f 56f
4:50pm 3.5ft 16s 7s 11 13 mph 1017.3mb 57f 56f
3:50pm 3.5ft 16s 7s 11 13 mph 1017.9mb 57f 56f
2:50pm 3.5ft 15s 7s 11 13 mph 1018.9mb 57f 56f
1:50pm 3.5ft 14s 7s 9 11 mph 1019.5mb 57f 56f
12:50pm 4ft 15s 7s 9 11 mph 1019.8mb 57f 57f
11:50am 3.5ft 15s 7s 9 11 mph 1019.9mb 57f 57f
10:50am 3.5ft 16s 7s 7
1019.8mb 56f 56f
9:50am 4ft 15s 8s 4 7 mph 1019.6mb 56f 56f
8:50am 3.5ft 15s 8s 7 9 mph 1018.8mb 56f 56f
7:50am 3ft 12s 7s 2 4 mph 1019.3mb 56f 56f
6:50am 3ft 15s 7s 7 9 mph 1018.9mb 56f 56f
5:50am 3ft 16s 7s 2 4 mph 1019.5mb 56f 56f
4:50am 3.5ft 16s 7s 9 11 mph 1018.7mb 56f 56f
3:50am 3.5ft 15s 6s 4
1020mb 56f 56f
2:50am 3ft 15s 6s 4 7 mph 1020mb 56f 56f
1:50am 3.5ft 14s 6s 4
1020mb 56f 57f
12:50am 3ft 15s 6s 4 7 mph 1020.1mb 56f 57f
Wed 10/07 11:50pm 3ft 16s 6s 7 9 mph 1020.3mb 56f 57f
10:50pm 3ft 13s 6s 7 9 mph 1020.2mb 56f 57f
9:50pm 3.5ft 16s 6s 7 9 mph 1021.4mb 56f 58f
8:50pm 3ft 16s 5s 11
1020.7mb 56f 57f
7:50pm 3.5ft 14s 5s 11 13 mph 1020.7mb 55f 57f
6:50pm 3ft 16s 5s 13 18 mph 1020.4mb 56f 57f
5:50pm 3.5ft 14s 5s 13 16 mph 1021.3mb 55f 57f
4:50pm 3.5ft 14s 5s 16 18 mph 1020.8mb 55f 57f
3:50pm  -   -   -  18 20 mph 1020.8mb 55f 57f
2:50pm 3.5ft 14s 5s 18 20 mph 1020.8mb 54f 57f
1:50pm 3.5ft 13s 5s 16 18 mph 1020.9mb 54f 57f
12:50pm 3ft 14s 5s 13 16 mph 1020.8mb 53f 57f
11:50am 3ft 15s 5s 13 18 mph 1020.5mb 53f 57f
10:50am 3ft 14s 5s 11 13 mph 1019.9mb 54f 57f
9:50am 3ft 15s 6s 11 13 mph 1019.6mb 54f 56f
8:50am 3.5ft 14s 6s 9 11 mph 1019.6mb 54f 56f
7:50am 3ft 16s 6s 13
1018.5mb 54f 55f
6:50am 3ft 15s 6s 11 13 mph 1018.8mb 54f 55f
5:50am 3ft 9s 5s 11 13 mph 1018.9mb 55f 55f
4:50am 3.5ft 9s 6s 13 16 mph 1018.4mb 55f 55f
3:50am 3.5ft 10s 7s 11 13 mph 1019.4mb 54f 55f
2:50am 3ft 9s 7s 9 11 mph 1019.8mb 54f 55f
1:50am 3.5ft 9s 7s 9
1019.7mb 55f 55f
12:50am 3.5ft 10s 7s 7 9 mph 1019.7mb 54f 55f
Tue 10/06 11:50pm 3.5ft 9s 7s 4 7 mph 1019.9mb 55f 55f
10:50pm 3.5ft 15s 7s 7
1019.5mb 54f 56f
9:50pm 3.5ft 10s 6s 4 7 mph 1019.3mb 56f 56f
8:50pm 3.5ft 10s 7s 7 9 mph 1019mb 56f 56f
7:50pm 3.5ft 10s 7s 9
1018.1mb 56f 56f